sensor_id;sensor_type;location;lat;lon;timestamp;P1;durP1;ratioP1;P2;durP2;ratioP2
3201;SDS011;34843;48.744;8.958;2022-07-21T00:01:30;24.87;;;17.93;;
3201;SDS011;34843;48.744;8.958;2022-07-21T00:03:56;20.70;;;17.17;;
3201;SDS011;34843;48.744;8.958;2022-07-21T00:06:22;22.80;;;17.10;;
3201;SDS011;34843;48.744;8.958;2022-07-21T00:08:47;23.10;;;19.40;;
3201;SDS011;34843;48.744;8.958;2022-07-21T00:11:13;26.03;;;18.40;;
3201;SDS011;34843;48.744;8.958;2022-07-21T00:13:38;24.43;;;18.40;;
3201;SDS011;34843;48.744;8.958;2022-07-21T00:16:04;21.00;;;17.30;;
3201;SDS011;34843;48.744;8.958;2022-07-21T00:18:30;24.00;;;17.27;;
3201;SDS011;34843;48.744;8.958;2022-07-21T00:20:57;28.23;;;20.27;;
3201;SDS011;34843;48.744;8.958;2022-07-21T00:23:23;19.30;;;17.33;;
3201;SDS011;34843;48.744;8.958;2022-07-21T00:25:50;22.83;;;18.57;;
3201;SDS011;34843;48.744;8.958;2022-07-21T00:28:17;29.27;;;17.53;;
3201;SDS011;34843;48.744;8.958;2022-07-21T00:30:43;22.80;;;19.00;;
3201;SDS011;34843;48.744;8.958;2022-07-21T00:33:08;22.40;;;17.40;;
3201;SDS011;34843;48.744;8.958;2022-07-21T00:35:34;22.70;;;17.70;;
3201;SDS011;34843;48.744;8.958;2022-07-21T00:38:00;24.40;;;17.47;;
3201;SDS011;34843;48.744;8.958;2022-07-21T00:40:25;23.77;;;19.40;;
3201;SDS011;34843;48.744;8.958;2022-07-21T00:42:51;23.30;;;17.43;;
3201;SDS011;34843;48.744;8.958;2022-07-21T00:45:17;20.37;;;18.17;;
3201;SDS011;34843;48.744;8.958;2022-07-21T00:47:42;21.97;;;18.00;;
3201;SDS011;34843;48.744;8.958;2022-07-21T00:50:09;23.00;;;18.97;;
3201;SDS011;34843;48.744;8.958;2022-07-21T00:52:37;24.57;;;19.40;;
3201;SDS011;34843;48.744;8.958;2022-07-21T00:55:03;22.53;;;18.77;;
3201;SDS011;34843;48.744;8.958;2022-07-21T00:57:30;20.23;;;18.20;;
3201;SDS011;34843;48.744;8.958;2022-07-21T00:59:56;19.10;;;17.00;;
3201;SDS011;34843;48.744;8.958;2022-07-21T01:02:21;22.67;;;17.90;;
3201;SDS011;34843;48.744;8.958;2022-07-21T01:04:47;22.30;;;17.80;;
3201;SDS011;34843;48.744;8.958;2022-07-21T01:07:12;23.90;;;16.90;;
3201;SDS011;34843;48.744;8.958;2022-07-21T01:09:38;22.60;;;16.30;;
3201;SDS011;34843;48.744;8.958;2022-07-21T01:12:04;18.90;;;16.47;;
3201;SDS011;34843;48.744;8.958;2022-07-21T01:14:30;19.20;;;16.80;;
3201;SDS011;34843;48.744;8.958;2022-07-21T01:16:56;26.20;;;16.90;;
3201;SDS011;34843;48.744;8.958;2022-07-21T01:19:22;20.70;;;15.17;;
3201;SDS011;34843;48.744;8.958;2022-07-21T01:21:48;22.70;;;15.60;;
3201;SDS011;34843;48.744;8.958;2022-07-21T01:24:15;18.73;;;15.87;;
3201;SDS011;34843;48.744;8.958;2022-07-21T01:29:14;21.70;;;16.87;;
3201;SDS011;34843;48.744;8.958;2022-07-21T01:31:41;22.03;;;16.60;;
3201;SDS011;34843;48.744;8.958;2022-07-21T01:34:09;20.77;;;17.93;;
3201;SDS011;34843;48.744;8.958;2022-07-21T01:36:35;19.97;;;17.63;;
3201;SDS011;34843;48.744;8.958;2022-07-21T01:39:01;48.43;;;18.20;;
3201;SDS011;34843;48.744;8.958;2022-07-21T01:41:46;20.10;;;16.43;;
3201;SDS011;34843;48.744;8.958;2022-07-21T01:44:12;18.80;;;16.30;;
3201;SDS011;34843;48.744;8.958;2022-07-21T01:46:40;18.53;;;15.20;;
3201;SDS011;34843;48.744;8.958;2022-07-21T01:49:09;16.13;;;14.23;;
3201;SDS011;34843;48.744;8.958;2022-07-21T01:51:35;19.23;;;14.30;;
3201;SDS011;34843;48.744;8.958;2022-07-21T01:54:00;14.00;;;12.47;;
3201;SDS011;34843;48.744;8.958;2022-07-21T01:56:26;20.47;;;13.67;;
3201;SDS011;34843;48.744;8.958;2022-07-21T01:58:55;24.00;;;14.90;;
3201;SDS011;34843;48.744;8.958;2022-07-21T02:01:22;22.83;;;15.93;;
3201;SDS011;34843;48.744;8.958;2022-07-21T02:03:49;22.50;;;15.43;;
3201;SDS011;34843;48.744;8.958;2022-07-21T02:06:15;18.70;;;15.77;;
3201;SDS011;34843;48.744;8.958;2022-07-21T02:08:41;18.90;;;14.90;;
3201;SDS011;34843;48.744;8.958;2022-07-21T02:11:09;16.20;;;13.87;;
3201;SDS011;34843;48.744;8.958;2022-07-21T02:13:35;15.20;;;12.73;;
3201;SDS011;34843;48.744;8.958;2022-07-21T02:16:01;18.17;;;13.50;;
3201;SDS011;34843;48.744;8.958;2022-07-21T02:18:27;17.83;;;13.57;;
3201;SDS011;34843;48.744;8.958;2022-07-21T02:20:53;20.13;;;14.43;;
3201;SDS011;34843;48.744;8.958;2022-07-21T02:23:19;20.40;;;14.50;;
3201;SDS011;34843;48.744;8.958;2022-07-21T02:25:45;14.10;;;12.60;;
3201;SDS011;34843;48.744;8.958;2022-07-21T02:28:11;23.00;;;13.70;;
3201;SDS011;34843;48.744;8.958;2022-07-21T02:30:37;20.30;;;15.73;;
3201;SDS011;34843;48.744;8.958;2022-07-21T02:33:03;16.17;;;14.43;;
3201;SDS011;34843;48.744;8.958;2022-07-21T02:35:28;16.83;;;14.30;;
3201;SDS011;34843;48.744;8.958;2022-07-21T02:37:54;17.70;;;14.20;;
3201;SDS011;34843;48.744;8.958;2022-07-21T02:40:20;15.40;;;12.57;;
3201;SDS011;34843;48.744;8.958;2022-07-21T02:42:45;15.77;;;13.60;;
3201;SDS011;34843;48.744;8.958;2022-07-21T02:45:11;17.90;;;13.73;;
3201;SDS011;34843;48.744;8.958;2022-07-21T02:47:50;13.80;;;12.07;;
3201;SDS011;34843;48.744;8.958;2022-07-21T02:50:20;15.80;;;13.90;;
3201;SDS011;34843;48.744;8.958;2022-07-21T02:52:47;17.87;;;14.33;;
3201;SDS011;34843;48.744;8.958;2022-07-21T02:55:14;19.73;;;14.20;;
3201;SDS011;34843;48.744;8.958;2022-07-21T02:57:39;16.27;;;13.27;;
3201;SDS011;34843;48.744;8.958;2022-07-21T03:00:05;17.17;;;13.30;;
3201;SDS011;34843;48.744;8.958;2022-07-21T03:02:32;21.70;;;12.70;;
3201;SDS011;34843;48.744;8.958;2022-07-21T03:04:58;15.20;;;11.60;;
3201;SDS011;34843;48.744;8.958;2022-07-21T03:07:23;13.97;;;11.90;;
3201;SDS011;34843;48.744;8.958;2022-07-21T03:09:49;21.67;;;12.83;;
3201;SDS011;34843;48.744;8.958;2022-07-21T03:12:14;14.17;;;12.67;;
3201;SDS011;34843;48.744;8.958;2022-07-21T03:14:40;22.83;;;12.80;;
3201;SDS011;34843;48.744;8.958;2022-07-21T03:17:05;13.63;;;12.07;;
3201;SDS011;34843;48.744;8.958;2022-07-21T03:19:31;15.37;;;12.00;;
3201;SDS011;34843;48.744;8.958;2022-07-21T03:21:56;17.47;;;12.07;;
3201;SDS011;34843;48.744;8.958;2022-07-21T03:24:22;17.10;;;11.90;;
3201;SDS011;34843;48.744;8.958;2022-07-21T03:26:47;14.60;;;11.60;;
3201;SDS011;34843;48.744;8.958;2022-07-21T03:29:13;17.40;;;13.27;;
3201;SDS011;34843;48.744;8.958;2022-07-21T03:31:38;14.60;;;12.43;;
3201;SDS011;34843;48.744;8.958;2022-07-21T03:34:04;16.27;;;14.23;;
3201;SDS011;34843;48.744;8.958;2022-07-21T03:36:30;13.30;;;11.90;;
3201;SDS011;34843;48.744;8.958;2022-07-21T03:38:55;16.90;;;13.50;;
3201;SDS011;34843;48.744;8.958;2022-07-21T03:41:21;13.30;;;11.90;;
3201;SDS011;34843;48.744;8.958;2022-07-21T03:43:46;17.80;;;12.00;;
3201;SDS011;34843;48.744;8.958;2022-07-21T03:46:12;16.00;;;11.27;;
3201;SDS011;34843;48.744;8.958;2022-07-21T03:48:39;14.33;;;12.00;;
3201;SDS011;34843;48.744;8.958;2022-07-21T03:51:04;12.53;;;11.10;;
3201;SDS011;34843;48.744;8.958;2022-07-21T03:53:30;19.53;;;12.90;;
3201;SDS011;34843;48.744;8.958;2022-07-21T03:55:56;17.80;;;13.30;;
3201;SDS011;34843;48.744;8.958;2022-07-21T03:58:21;15.83;;;12.50;;
3201;SDS011;34843;48.744;8.958;2022-07-21T04:00:47;13.97;;;12.57;;
3201;SDS011;34843;48.744;8.958;2022-07-21T04:03:13;15.43;;;12.30;;
3201;SDS011;34843;48.744;8.958;2022-07-21T04:05:38;14.90;;;11.17;;
3201;SDS011;34843;48.744;8.958;2022-07-21T04:08:05;13.40;;;11.53;;
3201;SDS011;34843;48.744;8.958;2022-07-21T04:10:32;15.70;;;13.10;;
3201;SDS011;34843;48.744;8.958;2022-07-21T04:13:00;15.57;;;12.80;;
3201;SDS011;34843;48.744;8.958;2022-07-21T04:15:27;17.87;;;13.73;;
3201;SDS011;34843;48.744;8.958;2022-07-21T04:17:53;18.40;;;12.37;;
3201;SDS011;34843;48.744;8.958;2022-07-21T04:20:19;15.00;;;12.37;;
3201;SDS011;34843;48.744;8.958;2022-07-21T04:22:46;14.37;;;12.53;;
3201;SDS011;34843;48.744;8.958;2022-07-21T04:25:12;14.97;;;12.73;;
3201;SDS011;34843;48.744;8.958;2022-07-21T04:27:38;15.90;;;13.80;;
3201;SDS011;34843;48.744;8.958;2022-07-21T04:30:05;19.57;;;11.63;;
3201;SDS011;34843;48.744;8.958;2022-07-21T04:32:32;17.90;;;11.70;;
3201;SDS011;34843;48.744;8.958;2022-07-21T04:34:57;17.83;;;12.03;;
3201;SDS011;34843;48.744;8.958;2022-07-21T04:37:23;14.03;;;11.77;;
3201;SDS011;34843;48.744;8.958;2022-07-21T04:39:48;13.37;;;11.00;;
3201;SDS011;34843;48.744;8.958;2022-07-21T04:42:14;16.17;;;12.00;;
3201;SDS011;34843;48.744;8.958;2022-07-21T04:44:40;11.03;;;9.23;;
3201;SDS011;34843;48.744;8.958;2022-07-21T04:47:05;11.93;;;10.67;;
3201;SDS011;34843;48.744;8.958;2022-07-21T04:49:31;16.03;;;10.27;;
3201;SDS011;34843;48.744;8.958;2022-07-21T04:51:56;13.93;;;11.87;;
3201;SDS011;34843;48.744;8.958;2022-07-21T04:54:22;15.93;;;11.30;;
3201;SDS011;34843;48.744;8.958;2022-07-21T04:56:48;13.57;;;9.27;;
3201;SDS011;34843;48.744;8.958;2022-07-21T04:59:14;10.00;;;9.00;;
3201;SDS011;34843;48.744;8.958;2022-07-21T05:01:39;10.77;;;9.50;;
3201;SDS011;34843;48.744;8.958;2022-07-21T05:04:05;10.43;;;9.17;;
3201;SDS011;34843;48.744;8.958;2022-07-21T05:06:32;11.90;;;9.10;;
3201;SDS011;34843;48.744;8.958;2022-07-21T05:08:58;9.13;;;8.23;;
3201;SDS011;34843;48.744;8.958;2022-07-21T05:11:24;9.90;;;9.00;;
3201;SDS011;34843;48.744;8.958;2022-07-21T05:13:50;13.70;;;9.23;;
3201;SDS011;34843;48.744;8.958;2022-07-21T05:16:15;12.30;;;10.30;;
3201;SDS011;34843;48.744;8.958;2022-07-21T05:18:41;11.30;;;9.30;;
3201;SDS011;34843;48.744;8.958;2022-07-21T05:21:06;9.70;;;8.80;;
3201;SDS011;34843;48.744;8.958;2022-07-21T05:23:32;10.53;;;9.50;;
3201;SDS011;34843;48.744;8.958;2022-07-21T05:25:57;9.47;;;8.57;;
3201;SDS011;34843;48.744;8.958;2022-07-21T05:28:23;10.33;;;8.80;;
3201;SDS011;34843;48.744;8.958;2022-07-21T05:30:48;11.10;;;8.60;;
3201;SDS011;34843;48.744;8.958;2022-07-21T05:33:14;9.30;;;8.40;;
3201;SDS011;34843;48.744;8.958;2022-07-21T05:35:39;8.73;;;8.03;;
3201;SDS011;34843;48.744;8.958;2022-07-21T05:38:05;10.03;;;9.00;;
3201;SDS011;34843;48.744;8.958;2022-07-21T05:40:31;10.70;;;9.60;;
3201;SDS011;34843;48.744;8.958;2022-07-21T05:42:56;10.77;;;7.83;;
3201;SDS011;34843;48.744;8.958;2022-07-21T05:45:22;16.63;;;9.30;;
3201;SDS011;34843;48.744;8.958;2022-07-21T05:47:47;12.67;;;9.93;;
3201;SDS011;34843;48.744;8.958;2022-07-21T05:50:13;9.53;;;8.00;;
3201;SDS011;34843;48.744;8.958;2022-07-21T05:52:39;10.90;;;8.87;;
3201;SDS011;34843;48.744;8.958;2022-07-21T05:55:04;10.00;;;9.10;;
3201;SDS011;34843;48.744;8.958;2022-07-21T05:57:31;8.97;;;8.07;;
3201;SDS011;34843;48.744;8.958;2022-07-21T05:59:57;9.10;;;8.40;;
3201;SDS011;34843;48.744;8.958;2022-07-21T06:02:23;9.30;;;8.50;;
3201;SDS011;34843;48.744;8.958;2022-07-21T06:04:49;11.93;;;9.40;;
3201;SDS011;34843;48.744;8.958;2022-07-21T06:07:15;16.20;;;8.67;;
3201;SDS011;34843;48.744;8.958;2022-07-21T06:09:40;10.30;;;7.73;;
3201;SDS011;34843;48.744;8.958;2022-07-21T06:12:06;9.57;;;8.70;;
3201;SDS011;34843;48.744;8.958;2022-07-21T06:14:31;9.33;;;8.53;;
3201;SDS011;34843;48.744;8.958;2022-07-21T06:16:57;10.80;;;8.23;;
3201;SDS011;34843;48.744;8.958;2022-07-21T06:19:22;9.53;;;7.93;;
3201;SDS011;34843;48.744;8.958;2022-07-21T06:21:48;9.53;;;8.63;;
3201;SDS011;34843;48.744;8.958;2022-07-21T06:24:13;9.17;;;8.03;;
3201;SDS011;34843;48.744;8.958;2022-07-21T06:26:39;10.37;;;9.13;;
3201;SDS011;34843;48.744;8.958;2022-07-21T06:29:05;9.07;;;8.27;;
3201;SDS011;34843;48.744;8.958;2022-07-21T06:31:31;9.10;;;8.30;;
3201;SDS011;34843;48.744;8.958;2022-07-21T06:33:57;9.43;;;8.63;;
3201;SDS011;34843;48.744;8.958;2022-07-21T06:36:23;11.20;;;10.10;;
3201;SDS011;34843;48.744;8.958;2022-07-21T06:38:48;9.40;;;8.40;;
3201;SDS011;34843;48.744;8.958;2022-07-21T06:41:14;9.50;;;8.60;;
3201;SDS011;34843;48.744;8.958;2022-07-21T06:43:39;9.73;;;8.87;;
3201;SDS011;34843;48.744;8.958;2022-07-21T06:46:05;9.63;;;7.90;;
3201;SDS011;34843;48.744;8.958;2022-07-21T06:48:30;9.43;;;8.43;;
3201;SDS011;34843;48.744;8.958;2022-07-21T06:50:56;9.57;;;7.60;;
3201;SDS011;34843;48.744;8.958;2022-07-21T06:53:22;9.40;;;8.50;;
3201;SDS011;34843;48.744;8.958;2022-07-21T06:55:49;8.93;;;8.13;;
3201;SDS011;34843;48.744;8.958;2022-07-21T06:58:18;9.13;;;7.50;;
3201;SDS011;34843;48.744;8.958;2022-07-21T07:00:47;9.20;;;8.30;;
3201;SDS011;34843;48.744;8.958;2022-07-21T07:03:13;15.43;;;9.10;;
3201;SDS011;34843;48.744;8.958;2022-07-21T07:05:40;9.80;;;7.47;;
3201;SDS011;34843;48.744;8.958;2022-07-21T07:08:07;8.47;;;7.60;;
3201;SDS011;34843;48.744;8.958;2022-07-21T07:10:33;9.87;;;7.53;;
3201;SDS011;34843;48.744;8.958;2022-07-21T07:12:58;7.00;;;6.30;;
3201;SDS011;34843;48.744;8.958;2022-07-21T07:15:24;8.10;;;7.30;;
3201;SDS011;34843;48.744;8.958;2022-07-21T07:17:50;10.90;;;7.10;;
3201;SDS011;34843;48.744;8.958;2022-07-21T07:20:16;10.30;;;7.73;;
3201;SDS011;34843;48.744;8.958;2022-07-21T07:22:42;7.57;;;6.87;;
3201;SDS011;34843;48.744;8.958;2022-07-21T07:25:08;7.90;;;7.10;;
3201;SDS011;34843;48.744;8.958;2022-07-21T07:27:34;7.13;;;6.53;;
3201;SDS011;34843;48.744;8.958;2022-07-21T07:30:00;7.37;;;6.67;;
3201;SDS011;34843;48.744;8.958;2022-07-21T07:32:26;7.07;;;6.37;;
3201;SDS011;34843;48.744;8.958;2022-07-21T07:34:51;7.30;;;6.60;;
3201;SDS011;34843;48.744;8.958;2022-07-21T07:37:17;6.73;;;6.10;;
3201;SDS011;34843;48.744;8.958;2022-07-21T07:39:43;7.13;;;6.43;;
3201;SDS011;34843;48.744;8.958;2022-07-21T07:42:08;7.10;;;6.40;;
3201;SDS011;34843;48.744;8.958;2022-07-21T07:44:34;8.90;;;6.23;;
3201;SDS011;34843;48.744;8.958;2022-07-21T07:47:00;10.67;;;6.57;;
3201;SDS011;34843;48.744;8.958;2022-07-21T07:49:29;8.17;;;6.77;;
3201;SDS011;34843;48.744;8.958;2022-07-21T07:51:55;8.13;;;7.30;;
3201;SDS011;34843;48.744;8.958;2022-07-21T07:54:21;8.30;;;6.77;;
3201;SDS011;34843;48.744;8.958;2022-07-21T07:56:47;7.80;;;6.70;;
3201;SDS011;34843;48.744;8.958;2022-07-21T07:59:12;7.80;;;7.10;;
3201;SDS011;34843;48.744;8.958;2022-07-21T08:01:38;7.70;;;6.60;;
3201;SDS011;34843;48.744;8.958;2022-07-21T08:04:03;7.37;;;6.57;;
3201;SDS011;34843;48.744;8.958;2022-07-21T08:06:29;8.90;;;7.47;;
3201;SDS011;34843;48.744;8.958;2022-07-21T08:08:55;8.57;;;7.40;;
3201;SDS011;34843;48.744;8.958;2022-07-21T08:11:20;6.90;;;6.27;;
3201;SDS011;34843;48.744;8.958;2022-07-21T08:13:46;7.20;;;6.40;;
3201;SDS011;34843;48.744;8.958;2022-07-21T08:16:11;9.40;;;7.20;;
3201;SDS011;34843;48.744;8.958;2022-07-21T08:18:40;7.00;;;6.23;;
3201;SDS011;34843;48.744;8.958;2022-07-21T08:21:06;7.17;;;6.40;;
3201;SDS011;34843;48.744;8.958;2022-07-21T08:23:32;6.83;;;6.23;;
3201;SDS011;34843;48.744;8.958;2022-07-21T08:25:57;6.17;;;5.67;;
3201;SDS011;34843;48.744;8.958;2022-07-21T08:28:23;7.30;;;6.70;;
3201;SDS011;34843;48.744;8.958;2022-07-21T08:30:48;7.77;;;7.00;;
3201;SDS011;34843;48.744;8.958;2022-07-21T08:33:14;7.00;;;6.40;;
3201;SDS011;34843;48.744;8.958;2022-07-21T08:35:40;6.97;;;6.23;;
3201;SDS011;34843;48.744;8.958;2022-07-21T08:38:06;7.50;;;6.50;;
3201;SDS011;34843;48.744;8.958;2022-07-21T08:40:34;6.50;;;5.90;;
3201;SDS011;34843;48.744;8.958;2022-07-21T08:43:02;6.50;;;5.80;;
3201;SDS011;34843;48.744;8.958;2022-07-21T08:45:28;6.40;;;5.80;;
3201;SDS011;34843;48.744;8.958;2022-07-21T08:47:55;8.07;;;7.10;;
3201;SDS011;34843;48.744;8.958;2022-07-21T08:50:22;8.23;;;7.30;;
3201;SDS011;34843;48.744;8.958;2022-07-21T08:52:49;6.77;;;6.10;;
3201;SDS011;34843;48.744;8.958;2022-07-21T08:55:15;6.77;;;6.17;;
3201;SDS011;34843;48.744;8.958;2022-07-21T08:57:40;9.83;;;7.43;;
3201;SDS011;34843;48.744;8.958;2022-07-21T09:00:07;7.47;;;6.67;;
3201;SDS011;34843;48.744;8.958;2022-07-21T09:02:34;7.23;;;6.63;;
3201;SDS011;34843;48.744;8.958;2022-07-21T09:05:02;6.20;;;5.60;;
3201;SDS011;34843;48.744;8.958;2022-07-21T09:07:45;6.97;;;6.27;;
3201;SDS011;34843;48.744;8.958;2022-07-21T09:10:15;8.20;;;5.70;;
3201;SDS011;34843;48.744;8.958;2022-07-21T09:12:53;7.00;;;6.40;;
3201;SDS011;34843;48.744;8.958;2022-07-21T09:15:21;7.10;;;6.43;;
3201;SDS011;34843;48.744;8.958;2022-07-21T09:20:33;5.80;;;5.20;;
3201;SDS011;34843;48.744;8.958;2022-07-21T09:23:10;6.13;;;5.60;;
3201;SDS011;34843;48.744;8.958;2022-07-21T09:25:40;6.03;;;5.40;;
3201;SDS011;34843;48.744;8.958;2022-07-21T09:30:54;5.97;;;5.47;;
3201;SDS011;34843;48.744;8.958;2022-07-21T09:36:14;5.43;;;4.93;;
3201;SDS011;34843;48.744;8.958;2022-07-21T09:38:51;5.80;;;5.20;;
3201;SDS011;34843;48.744;8.958;2022-07-21T09:41:23;5.30;;;4.70;;
3201;SDS011;34843;48.744;8.958;2022-07-21T09:43:51;7.33;;;4.90;;
3201;SDS011;34843;48.744;8.958;2022-07-21T09:46:22;10.70;;;4.70;;
3201;SDS011;34843;48.744;8.958;2022-07-21T09:48:50;5.50;;;4.63;;
3201;SDS011;34843;48.744;8.958;2022-07-21T09:51:18;9.10;;;4.83;;
3201;SDS011;34843;48.744;8.958;2022-07-21T09:54:26;4.40;;;3.67;;
3201;SDS011;34843;48.744;8.958;2022-07-21T09:56:35;5.10;;;4.70;;
3201;SDS011;34843;48.744;8.958;2022-07-21T09:59:02;4.23;;;3.93;;
3201;SDS011;34843;48.744;8.958;2022-07-21T10:01:29;4.30;;;3.90;;
3201;SDS011;34843;48.744;8.958;2022-07-21T10:03:56;6.83;;;3.90;;
3201;SDS011;34843;48.744;8.958;2022-07-21T10:06:24;4.70;;;4.27;;
3201;SDS011;34843;48.744;8.958;2022-07-21T10:08:54;6.00;;;3.87;;
3201;SDS011;34843;48.744;8.958;2022-07-21T10:11:21;4.33;;;3.93;;
3201;SDS011;34843;48.744;8.958;2022-07-21T10:13:47;3.73;;;3.47;;
3201;SDS011;34843;48.744;8.958;2022-07-21T10:16:13;4.23;;;3.57;;
3201;SDS011;34843;48.744;8.958;2022-07-21T10:21:46;3.90;;;3.60;;
3201;SDS011;34843;48.744;8.958;2022-07-21T10:24:34;4.70;;;4.07;;
3201;SDS011;34843;48.744;8.958;2022-07-21T10:27:06;4.13;;;3.50;;
3201;SDS011;34843;48.744;8.958;2022-07-21T10:37:54;4.90;;;3.60;;
3201;SDS011;34843;48.744;8.958;2022-07-21T10:45:31;4.23;;;3.83;;
3201;SDS011;34843;48.744;8.958;2022-07-21T10:47:58;3.77;;;3.47;;
3201;SDS011;34843;48.744;8.958;2022-07-21T10:50:29;3.60;;;3.00;;
3201;SDS011;34843;48.744;8.958;2022-07-21T10:53:01;3.93;;;3.60;;
3201;SDS011;34843;48.744;8.958;2022-07-21T10:55:30;5.60;;;4.20;;
3201;SDS011;34843;48.744;8.958;2022-07-21T10:58:42;4.27;;;3.50;;
3201;SDS011;34843;48.744;8.958;2022-07-21T11:03:24;3.97;;;3.67;;
3201;SDS011;34843;48.744;8.958;2022-07-21T11:08:37;4.57;;;3.90;;
3201;SDS011;34843;48.744;8.958;2022-07-21T11:13:59;4.07;;;3.50;;
3201;SDS011;34843;48.744;8.958;2022-07-21T11:21:51;4.23;;;3.83;;
3201;SDS011;34843;48.744;8.958;2022-07-21T11:24:19;3.93;;;3.50;;
3201;SDS011;34843;48.744;8.958;2022-07-21T11:29:22;5.00;;;4.33;;
3201;SDS011;34843;48.744;8.958;2022-07-21T11:31:48;4.97;;;4.57;;
3201;SDS011;34843;48.744;8.958;2022-07-21T11:34:14;3.73;;;3.43;;
3201;SDS011;34843;48.744;8.958;2022-07-21T11:36:40;3.20;;;3.00;;
3201;SDS011;34843;48.744;8.958;2022-07-21T11:39:07;4.03;;;3.63;;
3201;SDS011;34843;48.744;8.958;2022-07-21T11:41:35;5.20;;;4.70;;
3201;SDS011;34843;48.744;8.958;2022-07-21T11:44:03;4.20;;;3.90;;
3201;SDS011;34843;48.744;8.958;2022-07-21T11:46:44;4.13;;;3.83;;
3201;SDS011;34843;48.744;8.958;2022-07-21T11:49:10;5.20;;;3.67;;
3201;SDS011;34843;48.744;8.958;2022-07-21T11:51:36;4.00;;;3.20;;
3201;SDS011;34843;48.744;8.958;2022-07-21T11:54:02;4.73;;;4.30;;
3201;SDS011;34843;48.744;8.958;2022-07-21T11:56:27;5.23;;;4.80;;
3201;SDS011;34843;48.744;8.958;2022-07-21T11:59:10;5.40;;;4.87;;
3201;SDS011;34843;48.744;8.958;2022-07-21T12:04:27;4.67;;;4.13;;
3201;SDS011;34843;48.744;8.958;2022-07-21T12:06:58;12.87;;;4.77;;
3201;SDS011;34843;48.744;8.958;2022-07-21T12:09:24;4.47;;;4.17;;
3201;SDS011;34843;48.744;8.958;2022-07-21T12:11:50;5.77;;;5.07;;
3201;SDS011;34843;48.744;8.958;2022-07-21T12:14:16;5.50;;;5.10;;
3201;SDS011;34843;48.744;8.958;2022-07-21T12:16:49;5.27;;;4.77;;
3201;SDS011;34843;48.744;8.958;2022-07-21T12:19:19;4.97;;;4.57;;
3201;SDS011;34843;48.744;8.958;2022-07-21T12:21:46;5.40;;;4.80;;
3201;SDS011;34843;48.744;8.958;2022-07-21T12:24:20;5.13;;;4.30;;
3201;SDS011;34843;48.744;8.958;2022-07-21T12:26:46;7.17;;;5.40;;
3201;SDS011;34843;48.744;8.958;2022-07-21T12:29:25;5.43;;;5.03;;
3201;SDS011;34843;48.744;8.958;2022-07-21T12:31:51;8.07;;;6.50;;
3201;SDS011;34843;48.744;8.958;2022-07-21T12:34:17;5.67;;;5.17;;
3201;SDS011;34843;48.744;8.958;2022-07-21T12:36:44;6.30;;;5.80;;
3201;SDS011;34843;48.744;8.958;2022-07-21T12:42:00;6.33;;;5.67;;
3201;SDS011;34843;48.744;8.958;2022-07-21T12:44:25;6.23;;;5.63;;
3201;SDS011;34843;48.744;8.958;2022-07-21T12:46:52;6.23;;;5.73;;
3201;SDS011;34843;48.744;8.958;2022-07-21T12:49:17;6.40;;;5.83;;
3201;SDS011;34843;48.744;8.958;2022-07-21T12:51:43;7.13;;;4.97;;
3201;SDS011;34843;48.744;8.958;2022-07-21T12:54:20;6.20;;;5.60;;
3201;SDS011;34843;48.744;8.958;2022-07-21T12:56:46;6.70;;;6.10;;
3201;SDS011;34843;48.744;8.958;2022-07-21T12:59:11;6.03;;;5.53;;
3201;SDS011;34843;48.744;8.958;2022-07-21T13:01:39;5.63;;;5.10;;
3201;SDS011;34843;48.744;8.958;2022-07-21T13:04:05;6.83;;;6.13;;
3201;SDS011;34843;48.744;8.958;2022-07-21T13:06:30;6.60;;;6.00;;
3201;SDS011;34843;48.744;8.958;2022-07-21T13:08:56;6.73;;;5.57;;
3201;SDS011;34843;48.744;8.958;2022-07-21T13:11:22;6.00;;;5.50;;
3201;SDS011;34843;48.744;8.958;2022-07-21T13:13:48;5.80;;;5.30;;
3201;SDS011;34843;48.744;8.958;2022-07-21T13:16:16;6.27;;;5.70;;
3201;SDS011;34843;48.744;8.958;2022-07-21T13:18:42;6.07;;;5.47;;
3201;SDS011;34843;48.744;8.958;2022-07-21T13:21:08;6.13;;;5.47;;
3201;SDS011;34843;48.744;8.958;2022-07-21T13:23:33;6.07;;;5.60;;
3201;SDS011;34843;48.744;8.958;2022-07-21T13:25:59;7.73;;;5.43;;
3201;SDS011;34843;48.744;8.958;2022-07-21T13:28:25;6.63;;;5.60;;
3201;SDS011;34843;48.744;8.958;2022-07-21T13:30:51;6.00;;;5.20;;
3201;SDS011;34843;48.744;8.958;2022-07-21T13:33:16;7.70;;;5.70;;
3201;SDS011;34843;48.744;8.958;2022-07-21T13:35:42;7.60;;;5.40;;
3201;SDS011;34843;48.744;8.958;2022-07-21T13:38:08;5.60;;;5.20;;
3201;SDS011;34843;48.744;8.958;2022-07-21T13:40:34;6.30;;;5.70;;
3201;SDS011;34843;48.744;8.958;2022-07-21T13:42:59;8.03;;;5.23;;
3201;SDS011;34843;48.744;8.958;2022-07-21T13:45:25;5.73;;;5.07;;
3201;SDS011;34843;48.744;8.958;2022-07-21T13:47:51;5.70;;;5.20;;
3201;SDS011;34843;48.744;8.958;2022-07-21T13:50:16;6.17;;;5.60;;
3201;SDS011;34843;48.744;8.958;2022-07-21T13:52:42;5.40;;;4.90;;
3201;SDS011;34843;48.744;8.958;2022-07-21T13:55:08;6.90;;;4.93;;
3201;SDS011;34843;48.744;8.958;2022-07-21T13:57:35;5.20;;;4.80;;
3201;SDS011;34843;48.744;8.958;2022-07-21T14:00:03;5.50;;;5.07;;
3201;SDS011;34843;48.744;8.958;2022-07-21T14:02:33;4.80;;;4.50;;
3201;SDS011;34843;48.744;8.958;2022-07-21T14:04:59;6.60;;;4.60;;
3201;SDS011;34843;48.744;8.958;2022-07-21T14:07:25;4.53;;;4.13;;
3201;SDS011;34843;48.744;8.958;2022-07-21T14:09:51;5.17;;;4.77;;
3201;SDS011;34843;48.744;8.958;2022-07-21T14:12:16;5.23;;;4.40;;
3201;SDS011;34843;48.744;8.958;2022-07-21T14:14:43;5.73;;;5.17;;
3201;SDS011;34843;48.744;8.958;2022-07-21T14:17:11;6.10;;;5.60;;
3201;SDS011;34843;48.744;8.958;2022-07-21T14:19:38;8.23;;;5.03;;
3201;SDS011;34843;48.744;8.958;2022-07-21T14:22:03;6.67;;;5.20;;
3201;SDS011;34843;48.744;8.958;2022-07-21T14:24:29;5.50;;;5.00;;
3201;SDS011;34843;48.744;8.958;2022-07-21T14:27:13;4.90;;;4.50;;
3201;SDS011;34843;48.744;8.958;2022-07-21T14:29:38;5.77;;;5.27;;
3201;SDS011;34843;48.744;8.958;2022-07-21T14:32:04;4.87;;;4.57;;
3201;SDS011;34843;48.744;8.958;2022-07-21T14:34:30;4.43;;;4.13;;
3201;SDS011;34843;48.744;8.958;2022-07-21T14:36:56;7.90;;;4.77;;
3201;SDS011;34843;48.744;8.958;2022-07-21T14:39:21;11.40;;;4.97;;
3201;SDS011;34843;48.744;8.958;2022-07-21T14:41:46;4.80;;;4.30;;
3201;SDS011;34843;48.744;8.958;2022-07-21T14:44:12;4.33;;;3.93;;
3201;SDS011;34843;48.744;8.958;2022-07-21T14:46:38;5.20;;;4.23;;
3201;SDS011;34843;48.744;8.958;2022-07-21T14:49:04;5.07;;;4.63;;
3201;SDS011;34843;48.744;8.958;2022-07-21T14:51:29;5.90;;;4.30;;
3201;SDS011;34843;48.744;8.958;2022-07-21T14:53:55;8.53;;;4.90;;
3201;SDS011;34843;48.744;8.958;2022-07-21T14:56:20;6.87;;;4.97;;
3201;SDS011;34843;48.744;8.958;2022-07-21T14:58:46;4.33;;;3.93;;
3201;SDS011;34843;48.744;8.958;2022-07-21T15:01:12;5.30;;;4.90;;
3201;SDS011;34843;48.744;8.958;2022-07-21T15:03:37;3.67;;;3.37;;
3201;SDS011;34843;48.744;8.958;2022-07-21T15:06:03;4.87;;;4.47;;
3201;SDS011;34843;48.744;8.958;2022-07-21T15:08:30;4.40;;;4.00;;
3201;SDS011;34843;48.744;8.958;2022-07-21T15:10:56;4.80;;;4.50;;
3201;SDS011;34843;48.744;8.958;2022-07-21T15:13:21;7.07;;;4.50;;
3201;SDS011;34843;48.744;8.958;2022-07-21T15:15:47;4.97;;;4.47;;
3201;SDS011;34843;48.744;8.958;2022-07-21T15:18:12;5.40;;;4.90;;
3201;SDS011;34843;48.744;8.958;2022-07-21T15:20:38;4.37;;;3.97;;
3201;SDS011;34843;48.744;8.958;2022-07-21T15:23:04;4.83;;;4.43;;
3201;SDS011;34843;48.744;8.958;2022-07-21T15:25:29;4.43;;;4.03;;
3201;SDS011;34843;48.744;8.958;2022-07-21T15:27:55;5.83;;;4.17;;
3201;SDS011;34843;48.744;8.958;2022-07-21T15:30:20;5.10;;;4.53;;
3201;SDS011;34843;48.744;8.958;2022-07-21T15:32:46;4.67;;;4.37;;
3201;SDS011;34843;48.744;8.958;2022-07-21T15:35:12;4.77;;;4.20;;
3201;SDS011;34843;48.744;8.958;2022-07-21T15:37:37;4.70;;;4.30;;